Time;durP1;ratioP1;P1;durP2;ratioP2;P2;SDS_P1;SDS_P2;PMS_P1;PMS_P2;Temp;Humidity;BMP_temperature;BMP_pressure;BME280_temperature;BME280_humidity;BME280_pressure;Samples;Min_cycle;Max_cycle;Signal;HPM_P1;HPM_P2
2022/09/23 00:01:17;;;;;;;1999.90;999.90;;;10.50;99.90;;;;;;5135574;27;20126;-60
2022/09/23 00:03:45;;;;;;;1999.90;999.90;;;10.40;99.90;;;;;;5136871;27;20039;-60
2022/09/23 00:06:13;;;;;;;1999.90;999.90;;;10.40;99.90;;;;;;5136689;27;20043;-60
2022/09/23 00:08:40;;;;;;;1999.90;999.90;;;10.30;99.90;;;;;;5131092;27;20108;-60
2022/09/23 00:11:11;;;;;;;1999.90;999.90;;;10.30;99.90;;;;;;5114833;28;20055;-60
2022/09/23 00:13:38;;;;;;;1999.90;999.90;;;10.30;99.90;;;;;;5115629;28;20055;-60
2022/09/23 00:16:05;;;;;;;1999.90;999.90;;;10.20;99.90;;;;;;5113825;28;20082;-60
2022/09/23 00:18:32;;;;;;;1999.90;999.90;;;10.20;99.90;;;;;;5115789;28;20048;-60
2022/09/23 00:21:05;;;;;;;1999.90;999.90;;;10.20;99.90;;;;;;5114113;28;20093;-60
2022/09/23 00:23:32;;;;;;;1999.90;999.90;;;10.20;99.90;;;;;;5115092;27;20048;-60
2022/09/23 00:25:59;;;;;;;1999.90;999.90;;;10.20;99.90;;;;;;5115916;27;20115;-60
2022/09/23 00:28:25;;;;;;;1999.90;999.90;;;10.20;99.90;;;;;;5114037;28;20055;-60
2022/09/23 00:30:51;;;;;;;1999.90;999.90;;;10.20;99.90;;;;;;5113690;28;20043;-60
2022/09/23 00:33:17;;;;;;;1999.90;999.90;;;10.20;99.90;;;;;;5132095;27;20054;-60
2022/09/23 00:35:43;;;;;;;1999.90;999.90;;;10.20;99.90;;;;;;5116023;27;20552;-60
2022/09/23 00:38:09;;;;;;;1999.90;999.90;;;10.20;99.90;;;;;;5133764;27;20067;-60
2022/09/23 00:40:36;;;;;;;1999.90;999.90;;;10.20;99.90;;;;;;5126612;27;20085;-60
2022/09/23 00:43:01;;;;;;;1999.90;999.90;;;10.30;99.90;;;;;;5084600;28;20051;-60
2022/09/23 00:45:28;;;;;;;1999.90;999.90;;;10.30;99.90;;;;;;5124476;27;20051;-60
2022/09/23 00:47:57;;;;;;;1999.90;999.90;;;10.30;99.90;;;;;;5126076;27;20493;-59
2022/09/23 00:50:29;;;;;;;1999.90;999.90;;;10.30;99.90;;;;;;5123272;27;20047;-60
2022/09/23 00:52:58;;;;;;;1999.90;999.90;;;10.30;99.90;;;;;;5113824;28;20047;-60
2022/09/23 00:55:31;;;;;;;1999.90;999.90;;;10.30;99.90;;;;;;5123384;27;20392;-60
2022/09/23 00:58:00;;;;;;;1999.90;999.90;;;10.40;99.90;;;;;;5120034;27;20465;-60
2022/09/23 01:00:26;;;;;;;1999.90;999.90;;;10.40;99.90;;;;;;5117269;27;20055;-60
2022/09/23 01:02:53;;;;;;;1999.90;999.90;;;10.40;99.90;;;;;;5130352;27;20531;-60
2022/09/23 01:05:19;;;;;;;1999.90;999.90;;;10.40;99.90;;;;;;5134472;27;20039;-60
2022/09/23 01:07:45;;;;;;;1999.90;999.90;;;10.50;99.90;;;;;;5117032;27;20477;-60
2022/09/23 01:10:14;;;;;;;1999.90;999.90;;;10.50;99.90;;;;;;5134088;27;20042;-60
2022/09/23 01:12:57;;;;;;;1999.90;999.90;;;10.50;99.90;;;;;;5114170;28;20039;-60
2022/09/23 01:15:34;;;;;;;1999.90;999.90;;;10.50;99.90;;;;;;5114922;28;20062;-60
2022/09/23 01:18:11;;;;;;;1999.90;999.90;;;10.50;99.90;;;;;;5113782;27;20055;-60
2022/09/23 01:20:46;;;;;;;1999.90;999.90;;;10.50;99.90;;;;;;5129319;27;20484;-60
2022/09/23 01:23:46;;;;;;;1999.90;999.90;;;10.50;99.90;;;;;;5134924;27;20062;-60
2022/09/23 01:26:19;;;;;;;1999.90;999.90;;;10.50;99.90;;;;;;5134468;27;20107;-60
2022/09/23 01:29:03;;;;;;;;;;;10.50;99.90;;;;;;5132492;27;20047;-60
2022/09/23 01:31:35;;;;;;;;;;;10.40;99.90;;;;;;5135587;27;19966;-60
2022/09/23 01:34:12;;;;;;;1999.90;999.90;;;10.50;99.90;;;;;;5134239;27;19923;-60
2022/09/23 01:36:46;;;;;;;1999.90;999.90;;;10.50;99.90;;;;;;5115660;27;20075;-60
2022/09/23 01:39:31;;;;;;;1999.90;999.90;;;10.60;99.90;;;;;;5105329;28;20919;-60
2022/09/23 01:42:16;;;;;;;1999.90;999.90;;;10.60;99.90;;;;;;5113869;28;20123;-60
2022/09/23 01:44:47;;;;;;;1999.90;999.90;;;10.60;99.90;;;;;;5096019;28;20053;-60
2022/09/23 01:47:26;;;;;;;1999.90;999.90;;;10.70;99.90;;;;;;5110359;27;20083;-60
2022/09/23 01:50:01;;;;;;;1999.90;999.90;;;10.60;99.90;;;;;;5134688;27;20043;-60
2022/09/23 01:52:39;;;;;;;1999.90;999.90;;;10.60;99.90;;;;;;5134792;27;20055;-60
2022/09/23 01:55:16;;;;;;;1999.90;999.90;;;10.60;99.90;;;;;;5126869;27;20477;-60
2022/09/23 01:57:48;;;;;;;1999.90;999.90;;;10.60;99.90;;;;;;5127481;27;20318;-60
2022/09/23 02:00:17;;;;;;;1999.90;999.90;;;10.60;99.90;;;;;;5134075;27;20061;-60
2022/09/23 02:02:53;;;;;;;1999.90;999.90;;;10.50;99.90;;;;;;5116018;27;20458;-60
2022/09/23 02:05:36;;;;;;;1999.90;999.90;;;10.50;99.90;;;;;;5133766;27;20047;-60
2022/09/23 02:08:10;;;;;;;1999.90;999.90;;;10.50;99.90;;;;;;5115205;27;20134;-60
2022/09/23 02:10:46;;;;;;;1999.90;999.90;;;10.50;99.90;;;;;;5134571;27;20109;-60
2022/09/23 02:13:18;;;;;;;1999.90;999.90;;;10.60;99.90;;;;;;5123395;27;20052;-60
2022/09/23 02:15:50;;;;;;;1999.90;999.90;;;10.60;99.90;;;;;;5112001;28;20051;-60
2022/09/23 02:18:23;;;;;;;1999.90;999.90;;;10.60;99.90;;;;;;5112336;28;20100;-60
2022/09/23 02:20:55;;;;;;;1999.90;999.90;;;10.60;99.90;;;;;;5113721;27;20089;-60
2022/09/23 02:23:30;;;;;;;1999.90;999.90;;;10.60;99.90;;;;;;5114917;27;20484;-60
2022/09/23 02:26:02;;;;;;;1999.90;999.90;;;10.60;99.90;;;;;;5134374;27;20092;-60
2022/09/23 02:28:49;;;;;;;1999.90;999.90;;;10.60;99.90;;;;;;5114329;27;20095;-60
2022/09/23 02:31:28;;;;;;;1999.90;999.90;;;10.60;99.90;;;;;;5115608;27;20575;-60
2022/09/23 02:34:07;;;;;;;1999.90;999.90;;;10.60;99.90;;;;;;5113109;28;20514;-60
2022/09/23 02:36:45;;;;;;;1999.90;999.90;;;10.60;99.90;;;;;;5112844;28;20123;-60
2022/09/23 02:39:13;;;;;;;1999.90;999.90;;;10.60;99.90;;;;;;5097676;28;20050;-59
2022/09/23 02:42:01;;;;;;;1999.90;999.90;;;10.60;99.90;;;;;;5113133;28;20073;-60
2022/09/23 02:44:27;;;;;;;1999.90;999.90;;;10.60;99.90;;;;;;5112744;28;20083;-60
2022/09/23 02:46:53;;;;;;;1999.90;999.90;;;10.60;99.90;;;;;;5111965;28;20048;-60
2022/09/23 02:49:26;;;;;;;1999.90;999.90;;;10.60;99.90;;;;;;5110607;28;20048;-60
2022/09/23 02:51:53;;;;;;;1999.90;999.90;;;10.60;99.90;;;;;;5113484;28;20048;-60
2022/09/23 02:54:23;;;;;;;1999.90;999.90;;;10.50;99.90;;;;;;5113441;28;20123;-60
2022/09/23 02:56:48;;;;;;;1999.90;999.90;;;10.40;99.90;;;;;;5126208;28;20118;-60
2022/09/23 02:59:18;;;;;;;1999.90;999.90;;;10.30;99.90;;;;;;5133691;28;20118;-60
2022/09/23 03:01:53;;;;;;;1999.90;999.90;;;10.30;99.90;;;;;;5133568;28;20056;-60
2022/09/23 03:04:38;;;;;;;1999.90;999.90;;;10.20;99.90;;;;;;5113999;28;20062;-60
2022/09/23 03:07:10;;;;;;;1999.90;999.90;;;10.10;99.90;;;;;;5116045;28;20044;-60
2022/09/23 03:09:41;;;;;;;1999.90;999.90;;;10.00;99.90;;;;;;5115251;28;20126;-60
2022/09/23 03:12:30;;;;;;;1999.90;999.90;;;10.00;99.90;;;;;;5116185;28;20044;-60
2022/09/23 03:15:02;;;;;;;1999.90;999.90;;;9.90;99.90;;;;;;5117216;27;20043;-60
2022/09/23 03:17:53;;;;;;;1999.90;999.90;;;9.80;99.90;;;;;;5116263;28;20051;-60
2022/09/23 03:20:33;;;;;;;1999.90;999.90;;;9.80;99.90;;;;;;5133308;27;20072;-60
2022/09/23 03:23:05;;;;;;;1999.90;999.90;;;9.80;99.90;;;;;;5134807;27;20043;-60
2022/09/23 03:25:36;;;;;;;1999.90;999.90;;;9.80;99.90;;;;;;5115010;28;20039;-60
2022/09/23 03:28:03;;;;;;;1999.90;999.90;;;9.80;99.90;;;;;;5115750;27;20058;-60
2022/09/23 03:30:34;;;;;;;1999.90;999.90;;;9.90;99.90;;;;;;5137686;27;20031;-60
2022/09/23 03:33:03;;;;;;;1999.90;999.90;;;9.80;99.90;;;;;;5114084;27;20057;-60
2022/09/23 03:36:48;;;;;;;1999.90;999.90;;;9.80;99.90;;;;;;5117066;28;20043;-60
2022/09/23 03:38:23;;;;;;;1999.90;999.90;;;9.80;99.90;;;;;;5117564;27;20036;-60
2022/09/23 03:40:52;;;;;;;1999.90;999.90;;;9.80;99.90;;;;;;5106638;27;20059;-59
2022/09/23 03:43:17;;;;;;;1999.90;999.90;;;9.70;99.90;;;;;;5098456;28;20104;-60
2022/09/23 03:45:45;;;;;;;1999.90;999.90;;;9.70;99.90;;;;;;5097868;28;20449;-60
2022/09/23 03:48:13;;;;;;;1999.90;999.90;;;9.70;99.90;;;;;;5097806;28;20473;-60
2022/09/23 03:50:39;;;;;;;1999.90;999.90;;;9.70;99.90;;;;;;5106959;28;20126;-60
2022/09/23 03:53:05;;;;;;;1999.90;999.90;;;9.70;99.90;;;;;;5116010;28;20140;-60
2022/09/23 03:55:32;;;;;;;1999.90;999.90;;;9.70;99.90;;;;;;5118327;27;20078;-60
2022/09/23 03:57:59;;;;;;;1999.90;999.90;;;9.60;99.90;;;;;;5130317;27;20112;-60
2022/09/23 04:00:25;;;;;;;1999.90;999.90;;;9.60;99.90;;;;;;5135265;27;20469;-60
2022/09/23 04:02:51;;;;;;;1999.90;999.90;;;9.60;99.90;;;;;;5136470;27;20122;-60
2022/09/23 04:05:17;;;;;;;1999.90;999.90;;;9.60;99.90;;;;;;5137052;27;20496;-60
2022/09/23 04:07:43;;;;;;;1999.90;999.90;;;9.50;99.90;;;;;;5129096;27;20039;-59
2022/09/23 04:10:09;;;;;;;1999.90;999.90;;;9.50;99.90;;;;;;5115991;28;20374;-60
2022/09/23 04:12:35;;;;;;;1999.90;999.90;;;9.50;99.90;;;;;;5116344;28;20043;-60
2022/09/23 04:15:01;;;;;;;1999.90;999.90;;;9.40;99.90;;;;;;5115620;28;20040;-60
2022/09/23 04:17:27;;;;;;;1999.90;999.90;;;9.40;99.90;;;;;;5115553;27;20065;-60
2022/09/23 04:19:53;;;;;;;1999.90;999.90;;;9.30;99.90;;;;;;5116214;28;20393;-60
2022/09/23 04:22:18;;;;;;;1999.90;999.90;;;9.30;99.90;;;;;;5113783;28;20051;-59
2022/09/23 04:24:44;;;;;;;1999.90;999.90;;;9.30;99.90;;;;;;5115705;28;20050;-59
2022/09/23 04:27:10;;;;;;;1999.90;999.90;;;9.30;99.90;;;;;;5115964;28;20424;-60
2022/09/23 04:29:36;;;;;;;1999.90;999.90;;;9.30;99.90;;;;;;5128428;27;20066;-60
2022/09/23 04:32:01;;;;;;;1999.90;999.90;;;9.30;99.90;;;;;;5130649;27;20093;-60
2022/09/23 04:34:27;;;;;;;1999.90;999.90;;;9.20;99.90;;;;;;5115770;27;20044;-60
2022/09/23 04:36:53;;;;;;;1999.90;999.90;;;9.20;99.90;;;;;;5115050;28;20065;-60
2022/09/23 04:39:19;;;;;;;1999.90;999.90;;;9.10;99.90;;;;;;5114309;28;20096;-59
2022/09/23 04:41:46;;;;;;;1999.90;999.90;;;9.20;99.90;;;;;;5114495;28;20043;-60
2022/09/23 04:44:13;;;;;;;1999.90;999.90;;;9.20;99.90;;;;;;5116967;27;20088;-60
2022/09/23 04:46:40;;;;;;;1999.90;999.90;;;9.10;99.90;;;;;;5136142;27;20392;-60
2022/09/23 04:49:06;;;;;;;1999.90;999.90;;;9.10;99.90;;;;;;5135148;27;20043;-60
2022/09/23 04:51:32;;;;;;;1999.90;999.90;;;9.10;99.90;;;;;;5114245;27;20050;-60
2022/09/23 04:53:58;;;;;;;1999.90;999.90;;;9.00;99.90;;;;;;5117616;27;20039;-59
2022/09/23 04:56:27;;;;;;;1999.90;999.90;;;9.00;99.90;;;;;;5116555;27;20047;-60
2022/09/23 04:58:56;;;;;;;1999.90;999.90;;;9.00;99.90;;;;;;5130260;27;20046;-60
2022/09/23 05:01:27;;;;;;;1999.90;999.90;;;9.00;99.90;;;;;;5116731;27;20074;-60
2022/09/23 05:03:56;;;;;;;1999.90;999.90;;;9.30;99.90;;;;;;5134513;27;20542;-60
2022/09/23 05:06:23;;;;;;;1999.90;999.90;;;9.00;99.90;;;;;;5135884;27;20047;-60
2022/09/23 05:08:51;;;;;;;1999.90;999.90;;;;;;;;;;5135725;27;20050;-59
2022/09/23 05:11:17;;;;;;;1999.90;999.90;;;8.90;99.90;;;;;;5112262;28;20055;-60
2022/09/23 05:13:46;;;;;;;1999.90;999.90;;;8.90;99.90;;;;;;5115097;28;20048;-60
2022/09/23 05:16:13;;;;;;;1999.90;999.90;;;8.90;99.90;;;;;;5114933;28;20059;-60
2022/09/23 05:18:41;;;;;;;1999.90;999.90;;;8.90;99.90;;;;;;5113766;27;20108;-60
2022/09/23 05:21:10;;;;;;;1999.90;999.90;;;8.90;99.90;;;;;;5114905;27;20055;-60
2022/09/23 05:23:36;;;;;;;1999.90;999.90;;;8.90;99.90;;;;;;5114856;28;20082;-60
2022/09/23 05:26:05;;;;;;;1999.90;999.90;;;8.90;99.90;;;;;;5112281;28;20048;-60
2022/09/23 05:28:32;;;;;;;1999.90;999.90;;;8.80;99.90;;;;;;5119208;27;20046;-59
2022/09/23 05:31:06;;;;;;;1999.90;999.90;;;8.90;99.90;;;;;;5134619;27;20066;-60
2022/09/23 05:33:33;;;;;;;1999.90;999.90;;;8.80;99.90;;;;;;5134834;27;20077;-59
2022/09/23 05:36:00;;;;;;;1999.90;999.90;;;8.90;99.90;;;;;;5134741;27;20035;-60
2022/09/23 05:38:28;;;;;;;1999.90;999.90;;;8.80;99.90;;;;;;5134681;27;20046;-60
2022/09/23 05:40:57;;;;;;;1999.90;999.90;;;8.80;99.90;;;;;;5134761;27;20047;-59
2022/09/23 05:43:23;;;;;;;1999.90;999.90;;;8.80;99.90;;;;;;5134959;27;20066;-60
2022/09/23 05:45:49;;;;;;;1999.90;999.90;;;8.80;99.90;;;;;;5120731;27;20405;-60
2022/09/23 05:48:15;;;;;;;1999.90;999.90;;;8.80;99.90;;;;;;5114047;28;20055;-60
2022/09/23 05:50:50;;;;;;;1999.90;999.90;;;8.80;99.90;;;;;;5114191;28;20048;-60
2022/09/23 05:53:15;;;;;;;1999.90;999.90;;;8.90;99.90;;;;;;5095477;28;20058;-60
2022/09/23 05:55:41;;;;;;;1999.90;999.90;;;8.90;99.90;;;;;;5114073;27;20040;-60
2022/09/23 05:58:07;;;;;;;1999.90;999.90;;;9.00;99.90;;;;;;5127233;27;20051;-60
2022/09/23 06:00:33;;;;;;;1999.90;999.90;;;9.10;99.90;;;;;;5108693;27;20111;-60
2022/09/23 06:02:58;;;;;;;1999.90;999.90;;;9.10;99.90;;;;;;5114555;28;20116;-60
2022/09/23 06:05:24;;;;;;;1999.90;999.90;;;9.10;99.90;;;;;;5115943;27;20054;-60
2022/09/23 06:07:50;;;;;;;1999.90;999.90;;;9.20;99.90;;;;;;5095156;27;20083;-60
2022/09/23 06:10:16;;;;;;;1999.90;999.90;;;9.20;99.90;;;;;;5113543;28;20490;-60
2022/09/23 06:12:43;;;;;;;1999.90;999.90;;;9.30;99.90;;;;;;5129293;27;20039;-59
2022/09/23 06:15:10;;;;;;;1999.90;999.90;;;9.30;99.90;;;;;;5126210;27;20043;-60
2022/09/23 06:17:36;;;;;;;1999.90;999.90;;;9.30;99.90;;;;;;5118402;27;20035;-60
2022/09/23 06:20:02;;;;;;;1999.90;999.90;;;9.40;99.90;;;;;;5130214;27;20447;-60
2022/09/23 06:22:28;;;;;;;1999.90;999.90;;;9.40;99.90;;;;;;5128208;27;20047;-60
2022/09/23 06:24:54;;;;;;;1999.90;999.90;;;9.50;99.90;;;;;;5133091;27;20050;-59
2022/09/23 06:27:20;;;;;;;1999.90;999.90;;;9.60;99.90;;;;;;5133308;27;20043;-60
2022/09/23 06:29:45;;;;;;;1999.90;999.90;;;9.80;99.90;;;;;;5122898;27;20089;-60
2022/09/23 06:32:11;;;;;;;1999.90;999.90;;;9.90;99.90;;;;;;5113038;28;20040;-60
2022/09/23 06:34:38;;;;;;;1999.90;999.90;;;10.10;99.90;;;;;;5116064;27;20078;-59
2022/09/23 06:37:04;;;;;;;1999.90;999.90;;;10.20;99.90;;;;;;5131806;27;20051;-60
2022/09/23 06:39:30;;;;;;;1999.90;999.90;;;10.30;99.90;;;;;;5113165;28;20573;-60
2022/09/23 06:41:55;;;;;;;1999.90;999.90;;;10.40;99.90;;;;;;5112633;28;20040;-60
2022/09/23 06:44:27;;;;;;;1999.90;999.90;;;10.50;99.90;;;;;;5112666;28;20039;-60
2022/09/23 06:46:53;;;;;;;1999.90;999.90;;;10.60;99.90;;;;;;5113349;28;20051;-60
2022/09/23 06:49:21;;;;;;;1999.90;999.90;;;10.70;99.90;;;;;;5111131;28;20096;-60
2022/09/23 06:51:47;;;;;;;1999.90;999.90;;;10.80;99.90;;;;;;5133773;28;20075;-60
2022/09/23 06:54:13;;;;;;;1999.90;999.90;;;10.90;99.90;;;;;;5121351;28;20055;-60
2022/09/23 06:56:39;;;;;;;1999.90;999.90;;;11.00;99.90;;;;;;5118142;28;20121;-60
2022/09/23 06:59:06;;;;;;;1999.90;999.90;;;11.00;99.90;;;;;;5099116;28;20083;-60
2022/09/23 07:01:33;;;;;;;1999.90;999.90;;;11.00;99.90;;;;;;5112624;28;20434;-60
2022/09/23 07:04:00;;;;;;;1999.90;999.90;;;11.10;99.90;;;;;;5094532;28;20083;-60
2022/09/23 07:06:26;;;;;;;1999.90;999.90;;;11.10;99.90;;;;;;5115512;28;20074;-60
2022/09/23 07:08:52;;;;;;;1999.90;999.90;;;11.10;99.90;;;;;;5133546;28;20464;-60
2022/09/23 07:11:21;;;;;;;1999.90;999.90;;;11.20;99.90;;;;;;5114434;28;20118;-60
2022/09/23 07:13:47;;;;;;;1999.90;999.90;;;11.30;99.90;;;;;;5124447;28;20350;-60
2022/09/23 07:16:13;;;;;;;1999.90;999.90;;;11.50;99.90;;;;;;5112781;28;20059;-60
2022/09/23 07:18:39;;;;;;;1999.90;999.90;;;11.60;99.90;;;;;;5112362;28;20044;-60
2022/09/23 07:21:08;;;;;;;1999.90;999.90;;;11.70;99.90;;;;;;5113081;28;20374;-60
2022/09/23 07:23:34;;;;;;;1999.90;999.90;;;11.80;99.90;;;;;;5113556;28;20055;-60
2022/09/23 07:26:00;;;;;;;1999.90;999.90;;;11.90;99.90;;;;;;5133488;28;20107;-60
2022/09/23 07:28:27;;;;;;;1999.90;999.90;;;12.10;99.90;;;;;;5129951;28;20051;-60
2022/09/23 07:30:54;;;;;;;1999.90;999.90;;;12.10;99.90;;;;;;5097539;28;20429;-60
2022/09/23 07:33:20;;;;;;;1999.90;999.90;;;12.20;99.90;;;;;;5116740;28;20043;-60
2022/09/23 07:35:46;;;;;;;1999.90;999.90;;;12.30;99.90;;;;;;5111697;28;20048;-60
2022/09/23 07:38:12;;;;;;;1999.90;999.90;;;12.30;99.90;;;;;;5119934;28;20050;-60
2022/09/23 07:40:38;;;;;;;1999.90;999.90;;;12.40;99.90;;;;;;5118423;28;20027;-60
2022/09/23 07:43:06;;;;;;;1999.90;999.90;;;12.40;99.90;;;;;;5117529;28;20051;-60
2022/09/23 07:45:32;;;;;;;1999.90;999.90;;;12.50;99.90;;;;;;5093624;28;20060;-60
2022/09/23 07:47:59;;;;;;;1999.90;999.90;;;12.60;99.90;;;;;;5112844;28;20122;-60
2022/09/23 07:50:26;;;;;;;1999.90;999.90;;;12.60;99.90;;;;;;5111179;28;20083;-60
2022/09/23 07:52:51;;;;;;;1999.90;999.90;;;12.60;99.90;;;;;;5111882;28;20088;-60
2022/09/23 07:55:18;;;;;;;1999.90;999.90;;;12.60;99.90;;;;;;5114050;28;20039;-60
2022/09/23 07:57:45;;;;;;;1999.90;999.90;;;12.60;99.90;;;;;;5105823;27;20058;-60
2022/09/23 08:00:12;;;;;;;1999.90;999.90;;;12.60;99.90;;;;;;5123541;27;20065;-59
2022/09/23 08:02:39;;;;;;;1999.90;999.90;;;12.60;99.90;;;;;;5133682;27;20043;-60
2022/09/23 08:05:05;;;;;;;1999.90;999.90;;;12.60;99.90;;;;;;5137088;27;20039;-60
2022/09/23 08:07:33;;;;;;;1999.90;999.90;;;12.60;99.90;;;;;;5120872;27;20055;-60
2022/09/23 08:10:00;;;;;;;1999.90;999.90;;;12.60;99.90;;;;;;5112264;27;20478;-60
2022/09/23 08:12:27;;;;;;;1999.90;999.90;;;12.60;99.90;;;;;;5126301;27;20114;-60
2022/09/23 08:14:53;;;;;;;1999.90;999.90;;;12.60;99.90;;;;;;5120112;27;20093;-60
2022/09/23 08:17:19;;;;;;;1999.90;999.90;;;12.60;99.90;;;;;;5121131;27;20075;-60
2022/09/23 08:19:45;;;;;;;1999.90;999.90;;;12.70;99.90;;;;;;5105639;28;20611;-60
2022/09/23 08:22:11;;;;;;;1999.90;999.90;;;12.70;99.90;;;;;;5125208;27;20565;-60
2022/09/23 08:24:37;;;;;;;1999.90;999.90;;;12.80;99.90;;;;;;5129017;27;20053;-60
2022/09/23 08:27:03;;;;;;;1999.90;999.90;;;12.80;99.90;;;;;;5135958;27;20166;-60
2022/09/23 08:29:29;;;;;;;1999.90;999.90;;;12.90;99.90;;;;;;5112805;28;20048;-60
2022/09/23 08:31:55;;;;;;;1999.90;999.90;;;13.00;99.90;;;;;;5101945;27;20454;-60
2022/09/23 08:34:22;;;;;;;1999.90;999.90;;;13.10;99.90;;;;;;5118442;27;20042;-61
2022/09/23 08:36:48;;;;;;;1999.90;999.90;;;13.10;99.90;;;;;;5097057;28;20050;-60
2022/09/23 08:39:16;;;;;;;1999.90;999.90;;;13.20;99.90;;;;;;5115536;28;20052;-60
2022/09/23 08:41:51;;;;;;;1999.90;999.90;;;13.30;99.90;;;;;;5115025;27;20048;-60
2022/09/23 08:44:46;;;;;;;1999.90;999.90;;;13.40;99.90;;;;;;5115326;28;20051;-60
2022/09/23 08:47:14;;;;;;;1999.90;999.90;;;13.50;99.90;;;;;;5120979;27;20050;-61
2022/09/23 08:49:52;;;;;;;1999.90;999.90;;;13.70;99.90;;;;;;5135202;27;20096;-60
2022/09/23 08:52:32;;;;;;;1999.90;999.90;;;13.90;99.90;;;;;;5115545;27;20062;-60
2022/09/23 08:54:58;;;;;;;1999.90;999.90;;;14.10;99.90;;;;;;5114896;28;20378;-60
2022/09/23 08:57:37;;;;;;;1999.90;999.90;;;14.20;99.90;;;;;;5125288;27;20115;-60
2022/09/23 09:00:04;;;;;;;1999.90;999.90;;;14.30;99.90;;;;;;5115334;27;20043;-60
2022/09/23 09:02:34;;;;;;;1999.90;999.90;;;14.40;99.90;;;;;;5114267;28;20428;-60
2022/09/23 09:05:06;;;;;;;1999.90;999.90;;;14.60;99.90;;;;;;5115439;28;20040;-60
2022/09/23 09:07:34;;;;;;;1999.90;999.90;;;15.00;99.90;;;;;;5113741;27;20446;-60
2022/09/23 09:10:15;;;;;;;1999.90;999.90;;;15.10;99.90;;;;;;5124696;27;20118;-60
2022/09/23 09:12:41;;;;;;;1999.90;999.90;;;15.30;99.90;;;;;;5104707;28;20107;-60
2022/09/23 09:15:27;;;;;;;1999.90;999.90;;;15.50;99.90;;;;;;5117829;27;20064;-61
2022/09/23 09:18:01;;;;;;;1999.90;999.90;;;15.60;99.90;;;;;;5113705;28;20067;-60
2022/09/23 09:20:37;;;;;;;1999.90;999.90;;;15.70;99.90;;;;;;5115160;28;20531;-61
2022/09/23 09:23:10;;;;;;;1999.90;999.90;;;15.80;99.90;;;;;;5114202;28;20114;-60
2022/09/23 09:25:43;;;;;;;1999.90;999.90;;;16.00;99.90;;;;;;5114768;27;20051;-60
2022/09/23 09:28:15;;;;;;;;;;;16.00;99.90;;;;;;5116134;27;20043;-60
2022/09/23 09:30:43;;;;;;;1999.90;999.90;;;16.10;99.90;;;;;;5116394;27;19919;-60
2022/09/23 09:33:15;;;;;;;1999.90;999.90;;;16.10;99.90;;;;;;5119680;27;20549;-61
2022/09/23 09:35:56;;;;;;;1999.90;999.90;;;16.10;99.90;;;;;;5125944;27;20043;-60
2022/09/23 09:38:22;;;;;;;1999.90;999.90;;;16.00;99.90;;;;;;5134367;27;20129;-60
2022/09/23 09:40:48;;;;;;;1999.90;999.90;;;15.90;99.90;;;;;;5116521;27;20051;-60
2022/09/23 09:43:22;;;;;;;1999.90;999.90;;;15.90;99.90;;;;;;5133587;27;20398;-61
2022/09/23 09:46:07;;;;;;;1999.90;999.90;;;15.80;99.90;;;;;;5118938;27;20058;-60
2022/09/23 09:48:38;;;;;;;1999.90;999.90;;;15.70;99.90;;;;;;5134988;27;20114;-60
2022/09/23 09:51:20;;;;;;;1999.90;999.90;;;15.70;99.90;;;;;;5134673;27;20047;-61
2022/09/23 09:53:46;;;;;;;1999.90;999.90;;;15.60;99.90;;;;;;5119830;27;20487;-60
2022/09/23 09:56:15;;;;;;;1999.90;999.90;;;15.50;99.90;;;;;;5115896;27;20111;-61
2022/09/23 09:58:50;;;;;;;1999.90;999.90;;;15.50;99.90;;;;;;5102661;28;20087;-60
2022/09/23 10:01:18;;;;;;;1999.90;999.90;;;15.40;99.90;;;;;;5114227;28;20050;-60
2022/09/23 10:03:44;;;;;;;1999.90;999.90;;;15.40;99.90;;;;;;5114136;27;20452;-60
2022/09/23 10:06:18;;;;;;;1999.90;999.90;;;15.40;99.90;;;;;;5111642;28;20490;-61
2022/09/23 10:08:48;;;;;;;1999.90;999.90;;;15.40;99.90;;;;;;5112984;28;20448;-60
2022/09/23 10:11:17;;;;;;;1999.90;999.90;;;15.30;99.90;;;;;;5114219;27;20085;-60
2022/09/23 10:14:03;;;;;;;1999.90;999.90;;;15.30;99.90;;;;;;5112938;27;20035;-61
2022/09/23 10:16:33;;;;;;;1999.90;999.90;;;15.30;99.90;;;;;;5113688;28;20048;-61
2022/09/23 10:19:01;;;;;;;1999.90;999.90;;;15.30;99.90;;;;;;5113821;27;20048;-60
2022/09/23 10:21:34;;;;;;;1999.90;999.90;;;15.40;99.90;;;;;;5112506;28;20401;-61
2022/09/23 10:24:03;;;;;;;1999.90;999.90;;;15.30;99.90;;;;;;5113433;27;20043;-61
2022/09/23 10:26:37;;;;;;;1999.90;999.90;;;15.40;99.90;;;;;;5113053;28;20106;-61
2022/09/23 10:29:29;;;;;;;1999.90;999.90;;;15.40;99.90;;;;;;5105773;28;20063;-61
2022/09/23 10:32:27;;;;;;;1999.90;999.90;;;15.40;99.90;;;;;;5100069;27;20112;-61
2022/09/23 10:34:57;;;;;;;1999.90;999.90;;;15.40;99.90;;;;;;5133055;27;20128;-61
2022/09/23 10:37:35;;;;;;;1999.90;999.90;;;15.50;99.90;;;;;;5133262;27;20500;-61
2022/09/23 10:48:56;;;;;;;1999.90;999.90;;;15.40;99.90;;;;;;5133344;27;20096;-60
2022/09/23 10:51:45;;;;;;;1999.90;999.90;;;15.40;99.90;;;;;;5133741;27;20369;-60
2022/09/23 10:54:18;;;;;;;1999.90;999.90;;;15.50;99.90;;;;;;5131703;27;20037;-60
2022/09/23 10:56:51;;;;;;;1999.90;999.90;;;15.60;99.90;;;;;;5118715;28;20524;-61
2022/09/23 10:59:34;;;;;;;1999.90;999.90;;;15.70;99.90;;;;;;5115805;28;20047;-61
2022/09/23 11:02:19;;;;;;;1999.90;999.90;;;15.80;99.90;;;;;;5112518;28;20131;-61
2022/09/23 11:04:58;;;;;;;1999.90;999.90;;;15.80;99.90;;;;;;5110876;28;20047;-61
2022/09/23 11:07:34;;;;;;;1999.90;999.90;;;15.90;99.90;;;;;;5113211;28;20043;-61
2022/09/23 11:10:10;;;;;;;1999.90;999.90;;;15.90;99.90;;;;;;5112615;28;20100;-61
2022/09/23 11:12:46;;;;;;;1999.90;999.90;;;16.00;99.90;;;;;;5113186;28;20058;-60
2022/09/23 11:15:20;;;;;;;1999.90;999.90;;;16.00;99.90;;;;;;5113280;28;20054;-60
2022/09/23 11:18:06;;;;;;;1999.90;999.90;;;16.10;99.90;;;;;;5110873;28;20065;-60
2022/09/23 11:20:58;;;;;;;1999.90;999.90;;;16.20;99.90;;;;;;5113072;28;20055;-60
2022/09/23 11:23:53;;;;;;;1999.90;999.90;;;16.40;99.90;;;;;;5112196;28;20055;-60
2022/09/23 11:26:30;;;;;;;1999.90;999.90;;;16.50;99.90;;;;;;5112945;28;20044;-60
2022/09/23 11:29:17;;;;;;;1999.90;999.90;;;16.60;99.90;;;;;;5120894;28;20392;-61
2022/09/23 11:32:09;;;;;;;1999.90;999.90;;;16.60;99.90;;;;;;5114472;27;20451;-61
2022/09/23 11:35:09;;;;;;;1999.90;999.90;;;16.70;99.90;;;;;;5123524;27;20437;-61
2022/09/23 11:37:41;;;;;;;1999.90;999.90;;;16.70;99.90;;;;;;5103389;28;20039;-61
2022/09/23 11:40:17;;;;;;;1999.90;999.90;;;16.80;99.90;;;;;;5117175;27;20043;-61
2022/09/23 11:42:53;;;;;;;1999.90;999.90;;;16.90;99.90;;;;;;5119352;27;20108;-60
2022/09/23 11:45:32;;;;;;;1999.90;999.90;;;16.90;99.90;;;;;;5136272;27;20054;-61
2022/09/23 11:48:04;;;;;;;1999.90;999.90;;;17.00;99.90;;;;;;5118293;27;20051;-60
2022/09/23 11:50:46;;;;;;;1999.90;999.90;;;17.00;99.90;;;;;;5137026;27;20096;-61
2022/09/23 11:53:21;;;;;;;1999.90;999.90;;;17.00;99.90;;;;;;5137317;27;20122;-60
2022/09/23 11:55:54;;;;;;;1999.90;999.90;;;17.00;99.90;;;;;;5136882;27;20467;-61
2022/09/23 11:58:26;;;;;;;1999.90;999.90;;;17.00;99.90;;;;;;5125372;27;20063;-61
2022/09/23 12:01:05;;;;;;;1999.90;999.90;;;17.10;99.90;;;;;;5115126;28;20118;-61
2022/09/23 12:03:35;;;;;;;1999.90;999.90;;;17.00;99.90;;;;;;5114798;28;20110;-61
2022/09/23 12:06:08;;;;;;;1999.90;999.90;;;17.00;99.90;;;;;;5115209;28;20606;-60
2022/09/23 12:08:36;;;;;;;1999.90;999.90;;;17.00;99.90;;;;;;5115191;28;20077;-60
2022/09/23 12:11:27;;;;;;;1999.90;999.90;;;17.10;99.90;;;;;;5116002;28;20039;-60
2022/09/23 12:14:04;;;;;;;1999.90;999.90;;;17.10;99.90;;;;;;5114583;28;20043;-61
2022/09/23 12:16:37;;;;;;;1999.90;999.90;;;17.10;99.90;;;;;;5115957;28;20051;-61
2022/09/23 12:19:21;;;;;;;1999.90;999.90;;;17.10;99.90;;;;;;5115155;28;20044;-61
2022/09/23 12:22:02;;;;;;;1999.90;999.90;;;17.10;99.90;;;;;;5114693;28;20057;-61
2022/09/23 12:24:52;;;;;;;1999.90;999.90;;;17.10;99.90;;;;;;5133038;27;20122;-61
2022/09/23 12:27:31;;;;;;;1999.90;999.90;;;17.10;99.90;;;;;;5117044;27;20480;-60
2022/09/23 12:30:01;;;;;;;1999.90;999.90;;;17.10;99.90;;;;;;5120053;27;20051;-61
2022/09/23 12:32:28;;;;;;;1999.90;999.90;;;17.10;99.90;;;;;;5125322;27;20092;-61